Terminal Aerodrome Forecast
Issued by NWS

Home | Current Version | Previous Version | Text Only | Print | Product List | Glossary On
Versions: 1 2 3 4 5 6 7 8 9 10 11 12 13 14 15 16 17 18 19 20 21 22 23
000
FTUS44 KOUN 231121
TAFCSM
TAF
KCSM 231121Z 2312/2412 17014KT P6SM SCT040 BKN120
     FM231500 19015G23KT P6SM BKN050
     FM240000 16011KT P6SM BKN120=

USA.gov is the U.S. government's official web portal to all federal, state and local government web resources and services.